Time;durP1;ratioP1;P1;durP2;ratioP2;P2;SDS_P1;SDS_P2;PMS_P1;PMS_P2;Temp;Humidity;BMP_temperature;BMP_pressure;BME280_temperature;BME280_humidity;BME280_pressure;Samples;Min_cycle;Max_cycle;Signal;HPM_P1;HPM_P2
2022/01/28 00:00:50;;;;;;;4.20;1.73;;;7.60;76.20;;;;;;4974531;28;20184;-87
2022/01/28 00:03:17;;;;;;;6.20;1.90;;;7.60;76.20;;;;;;4969913;28;20216;-89
2022/01/28 00:05:42;;;;;;;12.88;2.90;;;7.60;76.40;;;;;;4949481;29;20188;-89
2022/01/28 00:08:09;;;;;;;6.97;1.97;;;7.60;76.10;;;;;;4974712;28;20235;-89
2022/01/28 00:10:38;;;;;;;13.13;2.30;;;7.50;76.20;;;;;;4974117;28;20491;-88
2022/01/28 00:13:19;;;;;;;5.72;1.90;;;7.50;76.20;;;;;;4973826;28;20200;-85
2022/01/28 00:39:37;;;;;;;7.87;2.03;;;7.70;78.00;;;;;;4960315;28;20353;-86
2022/01/28 00:42:03;;;;;;;7.47;2.60;;;7.60;78.20;;;;;;4984038;28;20203;-87
2022/01/28 00:44:29;;;;;;;19.83;3.55;;;7.60;78.40;;;;;;4990483;28;20416;-86
2022/01/28 00:46:55;;;;;;;7.30;2.77;;;7.60;79.30;;;;;;4975907;28;20800;-86
2022/01/28 00:49:20;;;;;;;20.27;3.73;;;7.50;78.70;;;;;;4974897;28;20558;-86
2022/01/28 00:51:46;;;;;;;18.27;2.90;;;7.60;78.90;;;;;;4974159;28;20352;-86
2022/01/28 00:54:12;;;;;;;6.63;2.22;;;7.50;79.10;;;;;;4974284;28;20892;-87
2022/01/28 00:56:38;;;;;;;10.10;2.13;;;7.40;79.20;;;;;;4977007;28;20176;-85
2022/01/28 00:59:04;;;;;;;8.30;1.87;;;7.40;79.60;;;;;;4959398;28;20576;-85
2022/01/28 01:01:30;;;;;;;14.95;2.45;;;7.40;79.70;;;;;;4960201;29;20195;-85
2022/01/28 01:03:57;;;;;;;10.97;2.30;;;7.50;79.80;;;;;;4975214;28;20184;-87
2022/01/28 01:06:23;;;;;;;6.40;2.55;;;7.50;79.80;;;;;;4974722;28;20181;-86
2022/01/28 01:08:48;;;;;;;13.20;3.27;;;7.40;79.80;;;;;;4975653;28;20195;-85
2022/01/28 01:11:15;;;;;;;10.90;2.50;;;7.40;80.10;;;;;;4976423;28;20252;-84
2022/01/28 01:13:42;;;;;;;7.80;2.95;;;7.40;80.30;;;;;;4976240;28;20256;-85
2022/01/28 01:16:11;;;;;;;13.70;4.00;;;7.30;80.50;;;;;;4978977;28;20192;-85
2022/01/28 01:18:47;;;;;;;6.90;2.42;;;7.30;81.40;;;;;;4984312;28;20610;-86
2022/01/28 01:21:26;;;;;;;10.45;2.70;;;7.40;80.70;;;;;;4967453;29;20275;-85
2022/01/28 01:23:57;;;;;;;7.88;2.13;;;7.40;80.70;;;;;;4980119;28;20195;-86
2022/01/28 01:26:32;;;;;;;16.00;2.50;;;7.40;80.70;;;;;;4968172;28;20165;-85
2022/01/28 01:28:59;;;;;;;17.13;3.05;;;7.20;80.70;;;;;;4979659;28;20176;-85
2022/01/28 01:31:25;;;;;;;13.27;2.53;;;7.30;81.70;;;;;;4977756;28;20208;-85
2022/01/28 01:36:17;;;;;;;4.40;2.70;;;7.30;81.10;;;;;;4958656;28;20443;-86
2022/01/28 01:38:43;;;;;;;5.40;2.33;;;7.20;81.00;;;;;;4973206;28;20185;-85
2022/01/28 01:41:18;;;;;;;9.95;2.05;;;7.30;81.10;;;;;;4973377;28;20680;-85
2022/01/28 01:43:58;;;;;;;11.50;3.13;;;7.20;81.00;;;;;;4973287;28;20208;-85
2022/01/28 01:54:24;;;;;;;7.85;2.35;;;7.20;81.10;;;;;;4959097;29;20187;-88
2022/01/28 01:56:50;;;;;;;13.63;2.80;;;7.10;81.20;;;;;;4963703;28;20188;-85
2022/01/28 01:59:16;;;;;;;8.00;2.50;;;7.20;81.20;;;;;;4977365;28;20434;-85
2022/01/28 02:01:43;;;;;;;5.43;2.83;;;7.00;81.40;;;;;;4993851;28;20454;-85
2022/01/28 02:04:09;;;;;;;10.00;4.35;;;7.00;81.60;;;;;;4994897;28;20180;-85
2022/01/28 02:06:37;;;;;;;12.50;3.00;;;6.90;81.80;;;;;;4993878;28;20199;-87
2022/01/28 02:09:06;;;;;;;10.30;3.08;;;6.90;82.00;;;;;;4992933;28;20667;-85
2022/01/28 02:11:32;;;;;;;10.77;2.85;;;6.90;82.20;;;;;;4974016;28;20243;-85
2022/01/28 02:13:57;;;;;;;17.47;2.97;;;6.80;82.30;;;;;;4974629;28;20181;-85
2022/01/28 02:16:24;;;;;;;18.97;3.00;;;6.90;82.40;;;;;;4975726;28;20183;-85
2022/01/28 02:18:49;;;;;;;15.40;2.63;;;6.90;82.60;;;;;;4976139;28;20184;-85
2022/01/28 02:21:17;;;;;;;20.10;3.13;;;6.80;82.70;;;;;;4964290;28;20268;-85
2022/01/28 02:23:47;;;;;;;13.90;3.15;;;6.70;83.00;;;;;;4967648;29;20620;-86
2022/01/28 02:26:15;;;;;;;18.00;4.30;;;6.70;83.30;;;;;;4965773;28;20191;-85
2022/01/28 02:28:44;;;;;;;13.55;3.22;;;6.70;83.40;;;;;;4979874;28;20200;-85
2022/01/28 02:31:10;;;;;;;8.65;2.85;;;6.70;83.40;;;;;;4982908;28;20196;-88
2022/01/28 02:33:35;;;;;;;19.07;2.80;;;6.70;83.60;;;;;;4979156;28;20180;-86
2022/01/28 02:36:06;;;;;;;15.23;3.90;;;6.70;83.50;;;;;;4978360;28;20419;-86
2022/01/28 02:38:33;;;;;;;7.55;3.15;;;6.70;83.50;;;;;;4972402;28;20634;-87
2022/01/28 02:41:01;;;;;;;14.52;3.78;;;6.60;83.50;;;;;;4973179;28;20324;-85
2022/01/28 02:43:35;;;;;;;16.60;4.72;;;6.60;83.60;;;;;;4972848;28;20583;-85
2022/01/28 02:46:06;;;;;;;11.70;4.25;;;6.60;83.60;;;;;;4972684;28;20184;-84
2022/01/28 02:48:34;;;;;;;6.55;3.05;;;6.50;83.70;;;;;;4972944;28;20235;-85
2022/01/28 02:56:35;;;;;;;9.40;3.38;;;6.60;83.70;;;;;;4958282;28;20183;-85
2022/01/28 02:59:01;;;;;;;16.92;5.30;;;6.60;83.60;;;;;;4976910;28;20204;-85
2022/01/28 03:01:27;;;;;;;11.87;4.50;;;6.60;83.60;;;;;;4978481;28;20261;-85
2022/01/28 03:03:55;;;;;;;9.85;3.85;;;6.60;83.50;;;;;;4973466;28;20479;-85
2022/01/28 03:06:21;;;;;;;17.05;3.65;;;6.60;83.50;;;;;;4973601;28;20211;-86
2022/01/28 03:08:56;;;;;;;8.27;3.40;;;6.60;83.60;;;;;;4983465;28;20199;-86
2022/01/28 03:16:40;;;;;;;16.50;5.57;;;6.50;83.70;;;;;;4956920;29;20264;-85
2022/01/28 03:19:16;;;;;;;8.88;4.05;;;6.50;83.80;;;;;;4971820;28;20183;-85
2022/01/28 03:21:45;;;;;;;13.32;4.40;;;6.50;83.90;;;;;;4971968;28;20676;-85
2022/01/28 03:24:12;;;;;;;13.00;4.03;;;6.60;84.70;;;;;;4971984;28;20177;-86
2022/01/28 03:27:02;;;;;;;19.15;6.05;;;6.40;83.80;;;;;;4972019;28;20665;-85
2022/01/28 03:29:27;;;;;;;12.40;6.32;;;6.30;84.00;;;;;;4957733;28;20157;-85
2022/01/28 03:31:53;;;;;;;11.23;5.63;;;6.40;84.20;;;;;;4972061;28;20822;-85
2022/01/28 03:34:19;;;;;;;14.67;6.83;;;6.30;84.30;;;;;;4971788;28;20177;-85
2022/01/28 03:36:45;;;;;;;9.15;5.45;;;6.30;84.30;;;;;;4972161;28;20929;-85
2022/01/28 03:39:11;;;;;;;24.80;6.60;;;6.30;84.40;;;;;;4975718;28;20192;-85
2022/01/28 03:41:38;;;;;;;18.58;7.30;;;6.20;84.40;;;;;;4976633;28;20200;-85
2022/01/28 03:44:05;;;;;;;14.10;6.25;;;6.30;84.70;;;;;;4978724;28;20679;-85
2022/01/28 03:46:30;;;;;;;18.02;6.85;;;6.30;84.70;;;;;;4975200;28;20631;-85
2022/01/28 03:48:57;;;;;;;16.73;8.23;;;6.20;84.60;;;;;;4976092;28;20208;-86
2022/01/28 03:51:23;;;;;;;15.98;7.95;;;6.20;84.80;;;;;;4976222;28;20495;-85
2022/01/28 03:54:07;;;;;;;16.52;6.25;;;6.20;84.90;;;;;;4975442;28;20209;-85
2022/01/28 03:56:33;;;;;;;20.35;7.85;;;6.30;85.00;;;;;;4961011;28;20194;-86
2022/01/28 03:58:59;;;;;;;27.57;7.70;;;6.40;84.90;;;;;;4975922;28;20469;-87
2022/01/28 04:01:30;;;;;;;18.05;8.00;;;6.30;84.80;;;;;;4976670;28;20608;-86
2022/01/28 04:11:54;;;;;;;15.73;8.68;;;6.20;84.80;;;;;;4961503;29;20239;-85
2022/01/28 04:14:38;;;;;;;24.33;10.55;;;6.20;85.00;;;;;;4958208;29;20191;-85
2022/01/28 04:19:33;;;;;;;28.50;9.32;;;6.10;85.20;;;;;;4962561;28;20177;-85
2022/01/28 04:21:59;;;;;;;26.80;11.88;;;6.10;85.30;;;;;;4978227;28;20213;-85
2022/01/28 04:24:32;;;;;;;20.67;9.10;;;6.10;85.40;;;;;;4979453;28;20187;-85
2022/01/28 04:26:58;;;;;;;21.63;10.90;;;6.10;85.40;;;;;;4980918;28;20464;-85
2022/01/28 04:29:24;;;;;;;22.53;11.97;;;6.00;85.40;;;;;;4979363;28;20212;-84
2022/01/28 04:31:50;;;;;;;18.73;10.75;;;6.00;86.30;;;;;;4965311;29;20428;-86
2022/01/28 04:34:19;;;;;;;27.63;11.80;;;5.90;85.90;;;;;;4981354;28;20185;-87
2022/01/28 04:37:14;;;;;;;19.73;11.63;;;5.80;85.90;;;;;;4981434;28;20417;-86
2022/01/28 04:42:19;;;;;;;23.85;12.80;;;5.80;86.20;;;;;;4960427;29;20204;-86
2022/01/28 04:47:52;;;;;;;19.67;11.32;;;5.90;86.40;;;;;;4958574;29;20722;-88
2022/01/28 05:00:25;;;;;;;32.75;14.57;;;5.90;86.50;;;;;;4977802;28;20536;-88
2022/01/28 05:08:58;;;;;;;30.08;13.43;;;6.00;86.50;;;;;;4959628;29;20199;-89
2022/01/28 05:11:17;;;;;;;31.38;13.90;;;5.80;86.40;;;;;;4955969;28;20176;-88
2022/01/28 05:27:13;;;;;;;35.53;14.82;;;5.60;87.10;;;;;;4958775;29;20603;-88
2022/01/28 05:29:41;;;;;;;32.25;14.73;;;5.50;87.20;;;;;;4974192;28;20176;-88
2022/01/28 05:32:08;;;;;;;52.30;17.10;;;5.60;87.20;;;;;;4972489;28;20200;-89
2022/01/28 05:34:34;;;;;;;37.13;16.40;;;5.60;87.30;;;;;;4972134;28;20208;-88
2022/01/28 05:37:00;;;;;;;33.87;17.80;;;5.70;87.40;;;;;;4958920;29;20251;-89
2022/01/28 05:39:26;;;;;;;27.98;16.20;;;5.70;87.40;;;;;;4972544;28;20511;-88
2022/01/28 05:41:51;;;;;;;35.00;16.30;;;5.70;87.30;;;;;;4972910;28;20211;-88
2022/01/28 05:44:18;;;;;;;35.63;18.30;;;5.70;87.30;;;;;;4972652;28;20434;-88
2022/01/28 05:46:45;;;;;;;42.13;17.85;;;5.60;87.30;;;;;;4976472;28;20185;-88
2022/01/28 05:49:13;;;;;;;42.22;18.65;;;5.60;87.30;;;;;;4981526;28;20185;-88
2022/01/28 05:51:39;;;;;;;34.63;16.45;;;5.60;87.30;;;;;;4984923;28;20215;-88
2022/01/28 05:54:05;;;;;;;29.90;16.00;;;5.70;87.30;;;;;;4967736;29;20181;-87
2022/01/28 05:56:31;;;;;;;32.30;18.43;;;5.70;87.20;;;;;;4979796;28;20255;-88
2022/01/28 05:58:58;;;;;;;28.38;16.55;;;5.60;87.20;;;;;;5000341;28;20179;-88
2022/01/28 06:01:24;;;;;;;46.58;16.83;;;5.50;87.30;;;;;;4997567;28;20339;-89
2022/01/28 06:03:50;;;;;;;44.35;16.75;;;5.60;87.50;;;;;;4992249;28;20188;-88
2022/01/28 06:06:22;;;;;;;27.87;16.40;;;5.60;87.60;;;;;;4994013;28;20294;-89
2022/01/28 06:08:50;;;;;;;44.83;16.52;;;5.60;87.60;;;;;;4975960;28;20463;-88
2022/01/28 06:11:16;;;;;;;36.45;17.52;;;5.60;87.60;;;;;;4973771;28;20191;-89
2022/01/28 06:13:42;;;;;;;31.13;16.63;;;5.60;87.60;;;;;;4971788;28;20181;-89
2022/01/28 06:16:09;;;;;;;37.70;17.85;;;5.70;87.60;;;;;;4972667;28;20181;-89
2022/01/28 06:18:36;;;;;;;41.28;17.23;;;6.00;87.20;;;;;;4956308;29;20191;-87
2022/01/28 06:21:03;;;;;;;42.38;15.10;;;5.90;86.60;;;;;;4972454;28;20191;-88
2022/01/28 06:23:28;;;;;;;29.25;15.95;;;5.80;86.50;;;;;;4972258;28;20263;-89
2022/01/28 06:25:54;;;;;;;36.63;17.67;;;5.70;86.60;;;;;;4976688;28;20657;-89
2022/01/28 06:28:20;;;;;;;36.97;17.47;;;6.00;86.50;;;;;;4963251;29;20272;-88
2022/01/28 06:30:46;;;;;;;29.23;14.63;;;6.00;86.10;;;;;;4975528;28;20191;-85
2022/01/28 06:33:13;;;;;;;35.53;15.60;;;5.90;86.00;;;;;;4972302;28;20967;-90
2022/01/28 06:35:43;;;;;;;27.30;17.17;;;5.70;86.10;;;;;;4955839;28;20424;-89
2022/01/28 06:38:09;;;;;;;30.00;17.48;;;5.70;86.20;;;;;;4978834;28;20191;-88
2022/01/28 06:40:35;;;;;;;28.07;16.03;;;5.60;86.30;;;;;;4998937;28;20172;-88
2022/01/28 06:43:01;;;;;;;34.07;17.00;;;5.50;86.50;;;;;;4983766;28;20436;-89
2022/01/28 06:45:26;;;;;;;29.90;16.90;;;5.40;86.80;;;;;;4956831;29;20483;-89
2022/01/28 06:47:52;;;;;;;37.20;16.77;;;5.30;87.10;;;;;;4972004;28;21059;-89
2022/01/28 06:50:18;;;;;;;45.40;18.47;;;5.30;87.50;;;;;;4971984;28;20496;-89
2022/01/28 06:52:44;;;;;;;40.87;16.67;;;5.30;87.70;;;;;;4971583;28;20835;-89
2022/01/28 06:55:14;;;;;;;24.90;17.25;;;5.30;87.70;;;;;;4971372;28;20181;-89
2022/01/28 06:57:40;;;;;;;33.67;18.75;;;5.30;87.80;;;;;;4978250;28;20234;-89
2022/01/28 07:00:07;;;;;;;40.97;19.43;;;5.20;88.00;;;;;;4972755;28;20191;-88
2022/01/28 07:02:33;;;;;;;34.88;17.05;;;5.60;88.00;;;;;;4970667;28;20455;-89
2022/01/28 07:04:59;;;;;;;41.42;17.77;;;5.70;87.40;;;;;;4955651;29;20177;-89
2022/01/28 07:08:54;;;;;;;39.67;16.42;;;5.50;86.50;;;;;;5111431;27;20544;-89
2022/01/28 07:11:20;;;;;;;26.23;16.57;;;5.60;87.10;;;;;;5109859;28;20232;-89
2022/01/28 07:13:45;;;;;;;32.63;16.10;;;5.60;87.00;;;;;;5109260;28;20183;-87
2022/01/28 07:16:11;;;;;;;36.97;17.00;;;5.70;87.00;;;;;;5110302;28;20742;-88
2022/01/28 07:18:37;;;;;;;31.17;17.33;;;5.60;86.90;;;;;;5110475;28;20207;-88
2022/01/28 07:21:02;;;;;;;27.50;15.83;;;5.70;86.90;;;;;;5111915;28;20266;-89
2022/01/28 07:23:29;;;;;;;37.73;16.57;;;5.80;86.60;;;;;;5115887;28;20266;-89
2022/01/28 07:25:55;;;;;;;33.58;17.70;;;5.60;86.40;;;;;;5112223;28;20175;-89
2022/01/28 07:28:23;;;;;;;30.42;19.17;;;5.50;86.70;;;;;;5110341;28;20252;-88
2022/01/28 07:30:49;;;;;;;43.75;18.92;;;5.60;86.80;;;;;;5110264;28;20703;-86
2022/01/28 07:33:14;;;;;;;36.30;19.60;;;5.50;86.90;;;;;;5109264;28;20289;-86
2022/01/28 07:35:40;;;;;;;39.70;19.37;;;5.40;87.00;;;;;;5110104;28;20556;-86
2022/01/28 07:38:06;;;;;;;47.77;19.97;;;5.40;87.20;;;;;;5109952;28;20409;-87
2022/01/28 07:40:32;;;;;;;36.70;19.88;;;5.50;87.40;;;;;;5110760;28;20179;-87
2022/01/28 07:42:58;;;;;;;34.65;20.65;;;5.40;87.40;;;;;;5109513;28;20716;-87
2022/01/28 07:45:24;;;;;;;41.13;20.95;;;5.50;87.60;;;;;;5111201;28;20180;-87
2022/01/28 07:47:51;;;;;;;45.92;22.02;;;5.50;87.60;;;;;;5110694;28;20302;-86
2022/01/28 07:50:17;;;;;;;33.60;20.95;;;5.40;87.70;;;;;;5127231;28;20266;-86
2022/01/28 07:52:43;;;;;;;39.83;21.92;;;5.50;87.80;;;;;;5118229;28;20191;-88
2022/01/28 07:55:11;;;;;;;49.40;22.10;;;5.50;87.80;;;;;;5110200;28;20746;-86
2022/01/28 07:57:37;;;;;;;48.20;20.52;;;5.50;87.80;;;;;;5109531;28;20440;-86
2022/01/28 08:00:09;;;;;;;51.33;20.83;;;5.50;87.80;;;;;;5110790;28;20191;-89
2022/01/28 08:02:35;;;;;;;49.08;21.05;;;5.50;87.80;;;;;;5110306;28;20206;-87
2022/01/28 08:05:01;;;;;;;38.75;20.33;;;5.60;87.80;;;;;;5110938;28;20179;-89
2022/01/28 08:07:27;;;;;;;43.08;21.17;;;5.60;87.80;;;;;;5115362;28;20207;-87
2022/01/28 08:09:53;;;;;;;42.50;22.30;;;5.60;87.80;;;;;;5109077;28;20659;-87
2022/01/28 08:12:19;;;;;;;62.33;25.00;;;5.60;87.70;;;;;;5110185;28;20191;-87
2022/01/28 08:14:45;;;;;;;44.20;21.80;;;5.60;87.80;;;;;;5108652;28;20179;-87
2022/01/28 08:17:11;;;;;;;56.20;25.20;;;5.70;87.90;;;;;;5109044;28;20548;-87
2022/01/28 08:19:37;;;;;;;54.67;25.40;;;5.70;87.90;;;;;;5100747;28;20476;-87
2022/01/28 08:22:04;;;;;;;51.30;24.13;;;5.70;87.80;;;;;;5096675;28;20219;-87
2022/01/28 08:24:29;;;;;;;63.35;23.25;;;5.70;87.80;;;;;;5095122;28;20704;-87
2022/01/28 08:26:55;;;;;;;42.20;23.27;;;5.70;87.80;;;;;;5095542;28;20230;-87
2022/01/28 08:29:21;;;;;;;45.90;25.20;;;5.70;87.80;;;;;;5096291;28;20402;-86
2022/01/28 08:31:47;;;;;;;41.67;24.53;;;5.80;87.80;;;;;;5095407;28;20246;-86
2022/01/28 08:34:13;;;;;;;66.93;26.17;;;5.90;87.90;;;;;;5096292;28;20234;-87
2022/01/28 08:36:39;;;;;;;55.25;26.05;;;5.90;87.80;;;;;;5097870;28;20176;-88
2022/01/28 08:39:06;;;;;;;50.58;23.92;;;5.90;87.80;;;;;;5099196;28;20168;-89
2022/01/28 08:41:33;;;;;;;50.78;25.17;;;6.10;87.80;;;;;;5098265;28;20192;-87
2022/01/28 08:43:58;;;;;;;51.75;23.98;;;6.30;87.60;;;;;;5097305;28;20195;-88
2022/01/28 08:46:24;;;;;;;47.07;24.90;;;6.20;87.40;;;;;;5098575;28;20204;-89
2022/01/28 08:48:50;;;;;;;43.97;21.77;;;6.20;87.20;;;;;;5101806;28;20462;-89
2022/01/28 08:51:16;;;;;;;48.30;22.83;;;6.30;87.30;;;;;;5099541;28;20183;-89
2022/01/28 08:53:42;;;;;;;50.40;22.50;;;6.30;87.30;;;;;;5096253;28;20266;-89
2022/01/28 08:56:08;;;;;;;33.67;19.90;;;6.40;87.10;;;;;;5096503;28;20180;-89
2022/01/28 08:58:35;;;;;;;41.55;19.77;;;6.50;87.00;;;;;;5097641;28;20203;-88
2022/01/28 09:01:00;;;;;;;44.45;19.02;;;6.50;87.00;;;;;;5097369;28;20182;-88
2022/01/28 09:03:26;;;;;;;43.23;20.50;;;6.50;87.00;;;;;;5097219;28;20212;-88
2022/01/28 09:05:52;;;;;;;48.30;20.40;;;6.50;87.10;;;;;;5096279;28;20418;-88
2022/01/28 09:08:18;;;;;;;36.73;18.83;;;6.70;87.10;;;;;;5094550;28;20582;-88
2022/01/28 09:10:57;;;;;;;63.70;19.92;;;6.80;87.00;;;;;;5096496;28;20172;-90
2022/01/28 09:13:37;;;;;;;35.80;17.27;;;6.80;86.90;;;;;;5095864;28;20282;-89
2022/01/28 09:16:04;;;;;;;53.17;16.60;;;6.90;86.90;;;;;;5096075;28;20160;-88
2022/01/28 09:18:30;;;;;;;42.28;17.30;;;6.80;86.70;;;;;;5096332;28;20183;-87
2022/01/28 09:20:56;;;;;;;48.33;17.30;;;6.90;86.70;;;;;;5095045;28;20229;-88
2022/01/28 09:23:23;;;;;;;29.45;15.52;;;7.00;86.50;;;;;;5097007;28;20430;-88
2022/01/28 09:25:49;;;;;;;52.33;16.27;;;7.10;86.60;;;;;;5096671;28;20179;-88
2022/01/28 09:28:15;;;;;;;33.53;15.85;;;7.20;86.50;;;;;;5098310;28;20206;-88
2022/01/28 09:30:41;;;;;;;25.40;15.77;;;7.20;86.40;;;;;;5099020;28;20172;-87
2022/01/28 09:33:08;;;;;;;28.90;15.27;;;7.20;86.40;;;;;;5101031;28;20200;-88
2022/01/28 09:35:34;;;;;;;24.30;15.98;;;7.30;86.20;;;;;;5107019;28;20217;-88
2022/01/28 09:38:00;;;;;;;36.90;16.33;;;7.40;86.10;;;;;;5115416;28;20176;-88
2022/01/28 09:40:26;;;;;;;30.88;16.10;;;7.50;86.00;;;;;;5106976;28;20188;-88
2022/01/28 09:42:53;;;;;;;28.30;14.13;;;7.50;86.00;;;;;;5111441;28;20202;-88
2022/01/28 09:45:22;;;;;;;22.83;13.80;;;7.60;85.90;;;;;;5097108;28;20172;-87
2022/01/28 09:47:51;;;;;;;40.88;15.10;;;7.50;85.80;;;;;;5097222;28;20306;-88
2022/01/28 09:50:18;;;;;;;33.63;14.55;;;7.60;85.70;;;;;;5096504;28;20198;-88
2022/01/28 09:52:44;;;;;;;32.75;14.23;;;7.60;85.60;;;;;;5096291;28;20210;-88
2022/01/28 09:55:10;;;;;;;36.92;15.93;;;7.50;85.30;;;;;;5095729;28;20179;-89
2022/01/28 09:57:35;;;;;;;39.95;15.30;;;7.60;85.20;;;;;;5095553;28;20244;-88
2022/01/28 10:00:06;;;;;;;26.03;15.57;;;7.80;84.90;;;;;;5095251;28;20206;-87
2022/01/28 10:02:59;;;;;;;54.38;18.30;;;7.90;84.80;;;;;;5095580;28;20203;-89
2022/01/28 10:05:29;;;;;;;44.28;13.40;;;7.90;84.60;;;;;;5096855;28;20165;-87
2022/01/28 10:08:09;;;;;;;23.73;14.60;;;8.00;84.50;;;;;;5095365;28;20203;-87
2022/01/28 10:11:16;;;;;;;29.45;17.02;;;7.90;84.50;;;;;;5097322;28;20683;-87
2022/01/28 10:13:47;;;;;;;36.45;14.38;;;7.90;84.20;;;;;;5095779;28;20196;-87
2022/01/28 10:16:24;;;;;;;27.55;13.93;;;8.00;84.20;;;;;;5096757;28;20168;-87
2022/01/28 10:19:01;;;;;;;35.85;15.57;;;8.10;84.10;;;;;;5107223;28;20159;-87
2022/01/28 10:21:36;;;;;;;27.25;13.93;;;8.10;84.00;;;;;;5104588;28;20336;-87
2022/01/28 10:24:22;;;;;;;32.58;14.23;;;8.00;83.90;;;;;;5096368;28;20207;-88
2022/01/28 10:27:07;;;;;;;33.63;14.27;;;8.20;83.90;;;;;;5100160;28;20163;-87
2022/01/28 10:29:38;;;;;;;26.48;14.00;;;8.20;83.80;;;;;;5098539;28;20171;-87
2022/01/28 10:32:14;;;;;;;22.77;12.60;;;8.30;83.90;;;;;;5098185;27;20693;-87
2022/01/28 10:34:45;;;;;;;30.30;12.93;;;8.40;83.70;;;;;;5117805;27;20181;-88
2022/01/28 10:37:15;;;;;;;27.65;13.18;;;8.50;83.60;;;;;;5117236;27;20174;-88
2022/01/28 10:39:51;;;;;;;24.35;13.50;;;8.40;83.40;;;;;;5117029;27;20178;-88
2022/01/28 10:42:40;;;;;;;38.22;13.90;;;8.50;83.40;;;;;;5101531;28;20206;-88
2022/01/28 10:45:12;;;;;;;17.90;13.05;;;8.60;83.10;;;;;;5097132;28;20225;-88
2022/01/28 10:47:45;;;;;;;30.60;14.90;;;8.60;82.90;;;;;;5118137;28;20213;-88
2022/01/28 10:50:27;;;;;;;28.75;14.10;;;8.80;82.60;;;;;;5102129;28;20559;-87
2022/01/28 10:53:05;;;;;;;33.50;15.35;;;8.70;82.40;;;;;;5096917;28;20191;-88
2022/01/28 10:55:33;;;;;;;34.13;12.80;;;8.80;82.20;;;;;;5096434;28;20179;-88
2022/01/28 10:58:04;;;;;;;24.90;14.35;;;9.00;81.90;;;;;;5100443;28;20257;-88
2022/01/28 11:00:36;;;;;;;26.92;15.27;;;9.00;81.40;;;;;;5117803;28;20171;-88
2022/01/28 11:03:05;;;;;;;29.05;13.43;;;9.10;81.10;;;;;;5138622;27;20190;-87
2022/01/28 11:05:32;;;;;;;24.00;13.90;;;9.10;80.60;;;;;;5142499;28;20665;-88
2022/01/28 11:08:01;;;;;;;26.63;12.30;;;9.10;80.50;;;;;;5135721;28;20205;-87
2022/01/28 11:10:27;;;;;;;25.45;12.90;;;9.20;80.40;;;;;;5134672;28;20380;-88
2022/01/28 11:12:54;;;;;;;28.13;12.32;;;9.30;80.00;;;;;;5116108;28;20194;-88
2022/01/28 11:15:22;;;;;;;33.50;12.70;;;9.40;79.70;;;;;;5116408;28;20207;-88
2022/01/28 11:17:49;;;;;;;24.48;11.95;;;9.40;79.30;;;;;;5116067;28;20181;-88
2022/01/28 11:20:20;;;;;;;27.25;11.15;;;9.40;79.10;;;;;;5116524;28;20193;-88
2022/01/28 11:23:35;;;;;;;22.83;10.52;;;9.30;78.70;;;;;;5116439;28;20277;-88
2022/01/28 11:26:07;;;;;;;36.03;10.75;;;9.40;78.60;;;;;;5035338;28;20173;-87
2022/01/28 11:28:45;;;;;;;20.05;11.10;;;9.60;78.50;;;;;;5103249;28;20607;-88
2022/01/28 11:31:12;;;;;;;25.30;11.15;;;9.50;78.10;;;;;;5117128;28;20315;-87
2022/01/28 11:33:49;;;;;;;26.65;11.50;;;9.60;77.80;;;;;;5117442;28;20179;-88
2022/01/28 11:36:32;;;;;;;23.08;12.38;;;9.70;77.60;;;;;;5117318;28;20324;-88
2022/01/28 11:39:09;;;;;;;30.77;15.27;;;9.80;77.30;;;;;;5136010;28;20163;-88
2022/01/28 11:41:35;;;;;;;21.33;14.07;;;9.80;76.80;;;;;;5116527;28;20194;-88
2022/01/28 11:44:01;;;;;;;25.40;14.73;;;9.90;76.40;;;;;;5116278;28;20170;-88
2022/01/28 11:46:30;;;;;;;25.30;12.57;;;9.90;76.00;;;;;;5117376;28;20218;-88
2022/01/28 11:49:01;;;;;;;20.50;10.10;;;10.00;75.70;;;;;;5117420;28;20198;-87
2022/01/28 11:51:33;;;;;;;20.60;9.93;;;9.90;75.10;;;;;;5116746;28;20229;-89
2022/01/28 11:54:00;;;;;;;25.02;9.70;;;9.90;74.80;;;;;;5118904;27;20216;-87
2022/01/28 11:56:27;;;;;;;26.85;7.45;;;10.00;74.60;;;;;;5143125;27;20170;-88
2022/01/28 11:58:56;;;;;;;11.45;8.82;;;9.90;73.90;;;;;;5147993;27;20174;-87
2022/01/28 12:01:45;;;;;;;17.73;8.77;;;9.80;73.50;;;;;;5144018;27;20264;-87
2022/01/28 12:04:27;;;;;;;13.27;7.80;;;9.80;73.50;;;;;;5141235;27;20273;-87
2022/01/28 12:07:03;;;;;;;14.80;8.27;;;10.00;73.10;;;;;;5140678;27;20301;-87
2022/01/28 12:09:30;;;;;;;25.00;8.27;;;10.10;73.10;;;;;;5141252;27;20170;-88
2022/01/28 12:11:58;;;;;;;14.55;6.60;;;10.20;71.80;;;;;;5159498;27;20578;-87
2022/01/28 12:14:55;;;;;;;13.73;7.55;;;10.20;71.00;;;;;;5141317;27;20170;-88
2022/01/28 12:17:49;;;;;;;16.27;7.60;;;10.20;70.90;;;;;;5140939;27;20177;-86
2022/01/28 12:20:15;;;;;;;13.57;7.13;;;10.20;70.90;;;;;;5137800;27;20182;-87
2022/01/28 12:22:59;;;;;;;13.95;5.97;;;10.30;70.90;;;;;;5142164;27;20202;-88
2022/01/28 12:25:43;;;;;;;14.27;5.78;;;10.20;70.20;;;;;;5140695;27;20173;-89
2022/01/28 12:28:42;;;;;;;7.43;5.40;;;10.20;68.90;;;;;;5141626;27;20226;-88
2022/01/28 12:31:23;;;;;;;10.32;4.82;;;10.20;68.40;;;;;;5148359;27;20187;-88
2022/01/28 12:33:52;;;;;;;6.18;4.97;;;10.30;67.60;;;;;;5158534;27;20166;-87
2022/01/28 12:36:38;;;;;;;9.45;5.80;;;10.20;67.20;;;;;;5144800;27;20159;-88
2022/01/28 12:41:42;;;;;;;10.27;7.20;;;10.10;67.80;;;;;;5160633;27;20316;-89
2022/01/28 12:44:09;;;;;;;17.90;7.65;;;10.10;68.60;;;;;;5139639;27;20177;-89
2022/01/28 12:46:38;;;;;;;10.27;7.13;;;10.10;69.70;;;;;;5141010;27;20173;-89
2022/01/28 12:49:07;;;;;;;13.55;8.60;;;10.00;70.70;;;;;;5140542;27;20192;-89
2022/01/28 12:51:37;;;;;;;12.88;9.23;;;10.20;71.50;;;;;;5141018;27;20193;-89
2022/01/28 12:54:03;;;;;;;21.42;14.00;;;10.20;71.90;;;;;;5141362;27;20214;-89
2022/01/28 12:56:29;;;;;;;17.27;11.97;;;10.20;72.30;;;;;;5144332;27;20193;-90
2022/01/28 12:58:55;;;;;;;29.23;13.03;;;10.30;72.70;;;;;;5148944;27;20418;-89
2022/01/28 13:01:25;;;;;;;29.60;16.10;;;10.40;73.00;;;;;;5149579;27;20181;-89
2022/01/28 13:04:04;;;;;;;33.25;16.85;;;10.40;73.40;;;;;;5140599;27;20776;-89
2022/01/28 13:09:10;;;;;;;37.70;20.10;;;10.40;74.90;;;;;;5157146;27;20182;-88
2022/01/28 13:11:48;;;;;;;42.83;21.88;;;10.20;75.90;;;;;;5119683;27;20281;-88
2022/01/28 13:14:18;;;;;;;40.33;20.63;;;10.30;76.40;;;;;;5137953;27;20159;-88
2022/01/28 13:16:47;;;;;;;36.17;20.58;;;10.30;76.20;;;;;;5119568;27;20190;-88
2022/01/28 13:19:14;;;;;;;42.60;23.40;;;10.20;75.90;;;;;;5122568;27;20278;-88
2022/01/28 13:21:42;;;;;;;41.53;21.60;;;10.10;75.60;;;;;;5123943;27;20201;-88
2022/01/28 13:24:15;;;;;;;44.20;22.60;;;9.90;75.70;;;;;;5143137;27;20226;-87
2022/01/28 13:27:03;;;;;;;35.33;18.48;;;9.70;75.90;;;;;;5127621;27;20178;-88
2022/01/28 13:29:37;;;;;;;34.22;20.92;;;9.70;76.20;;;;;;5124646;27;20217;-87
2022/01/28 13:32:09;;;;;;;40.97;20.30;;;9.70;76.30;;;;;;5140603;27;20197;-87
2022/01/28 13:34:48;;;;;;;33.38;19.80;;;9.50;76.40;;;;;;5121159;27;20263;-87
2022/01/28 13:37:38;;;;;;;35.75;18.77;;;9.50;76.80;;;;;;5118407;27;20213;-87
2022/01/28 13:40:12;;;;;;;47.38;19.15;;;9.60;76.70;;;;;;5118845;27;20572;-87
2022/01/28 13:43:14;;;;;;;37.28;19.20;;;9.60;76.30;;;;;;5120356;27;20206;-87
2022/01/28 13:45:57;;;;;;;30.73;17.38;;;9.20;76.40;;;;;;5117900;27;20178;-88
2022/01/28 13:48:32;;;;;;;29.67;16.58;;;9.00;77.20;;;;;;5118085;27;20221;-89
2022/01/28 13:51:16;;;;;;;37.78;18.08;;;9.00;77.60;;;;;;5118141;27;20174;-88
2022/01/28 13:54:15;;;;;;;33.40;17.05;;;8.70;77.80;;;;;;5136694;27;20162;-88
2022/01/28 13:56:45;;;;;;;34.90;17.42;;;8.50;78.50;;;;;;5121318;27;20178;-88
2022/01/28 13:59:12;;;;;;;35.58;16.98;;;8.50;78.80;;;;;;5118363;27;20258;-88
2022/01/28 14:01:42;;;;;;;35.30;17.33;;;8.50;78.80;;;;;;5137114;27;20215;-88
2022/01/28 14:04:18;;;;;;;36.05;19.40;;;8.40;79.00;;;;;;5119714;27;20158;-88
2022/01/28 14:06:44;;;;;;;38.80;18.08;;;8.20;79.20;;;;;;5118840;27;20172;-88
2022/01/28 14:09:17;;;;;;;31.80;16.17;;;8.30;79.70;;;;;;5122152;27;20171;-89
2022/01/28 14:11:46;;;;;;;30.52;17.67;;;8.20;79.80;;;;;;5127241;27;20194;-87
2022/01/28 14:16:56;;;;;;;35.83;19.35;;;8.20;80.10;;;;;;5151590;27;20185;-88
2022/01/28 14:19:23;;;;;;;35.75;17.88;;;8.40;79.90;;;;;;5125311;27;20227;-87
2022/01/28 14:21:49;;;;;;;39.67;19.35;;;8.30;79.90;;;;;;5118098;27;20190;-87
2022/01/28 14:24:29;;;;;;;45.90;20.88;;;8.10;80.10;;;;;;5117774;27;20231;-87
2022/01/28 14:27:11;;;;;;;40.42;18.65;;;8.10;80.60;;;;;;5117722;27;20169;-87
2022/01/28 14:32:15;;;;;;;47.42;20.73;;;8.10;81.10;;;;;;5135673;27;20190;-87
2022/01/28 14:34:42;;;;;;;37.17;19.92;;;8.20;81.90;;;;;;5118053;27;20182;-87
2022/01/28 14:37:09;;;;;;;34.58;19.15;;;8.20;81.30;;;;;;5117301;27;20186;-87